createdAt,value
2023-07-24T00:00:41.608Z,21.43
2023-07-24T00:03:09.302Z,21.41
2023-07-24T00:05:37.028Z,21.39
2023-07-24T00:08:05.036Z,21.41
2023-07-24T00:10:32.653Z,21.33
2023-07-24T00:13:00.295Z,21.21
2023-07-24T00:15:27.873Z,21.18
2023-07-24T00:17:55.454Z,21.12
2023-07-24T00:20:25.402Z,21.12
2023-07-24T00:22:53.045Z,21.19
2023-07-24T00:25:20.652Z,21.26
2023-07-24T00:27:48.207Z,21.24
2023-07-24T00:30:15.776Z,21.20
2023-07-24T00:32:45.100Z,21.16
2023-07-24T00:35:12.674Z,21.17
2023-07-24T00:37:40.232Z,21.17
2023-07-24T00:40:09.324Z,21.17
2023-07-24T00:42:36.889Z,21.09
2023-07-24T00:45:05.635Z,21.01
2023-07-24T00:47:33.868Z,20.97
2023-07-24T00:50:01.618Z,20.91
2023-07-24T00:52:29.245Z,20.91
2023-07-24T00:54:56.895Z,20.95
2023-07-24T00:57:25.036Z,20.97
2023-07-24T00:59:53.222Z,21.01
2023-07-24T01:02:21.430Z,21.03
2023-07-24T01:04:49.882Z,21.04
2023-07-24T01:07:17.887Z,21.01
2023-07-24T01:09:45.501Z,20.98
2023-07-24T01:12:28.894Z,20.96
2023-07-24T01:15:04.661Z,20.92
2023-07-24T01:17:33.278Z,20.90
2023-07-24T01:20:05.033Z,20.90
2023-07-24T01:23:20.768Z,20.87
2023-07-24T01:26:00.507Z,20.89
2023-07-24T01:28:28.190Z,20.90
2023-07-24T01:30:57.218Z,20.90
2023-07-24T01:33:25.834Z,20.90
2023-07-24T01:36:01.700Z,20.90
2023-07-24T01:38:31.910Z,20.94
2023-07-24T01:41:01.386Z,20.96
2023-07-24T01:43:31.359Z,20.95
2023-07-24T01:45:59.732Z,20.96
2023-07-24T01:48:27.281Z,20.95
2023-07-24T01:50:55.801Z,20.97
2023-07-24T01:53:23.379Z,20.99
2023-07-24T01:55:50.946Z,20.98
2023-07-24T01:58:18.573Z,20.96
2023-07-24T02:00:46.231Z,20.94
2023-07-24T02:03:13.802Z,20.94
2023-07-24T02:05:41.405Z,20.91
2023-07-24T02:08:09.081Z,20.91
2023-07-24T02:10:39.151Z,20.89
2023-07-24T02:13:08.413Z,20.88
2023-07-24T02:15:37.120Z,20.87
2023-07-24T02:18:05.393Z,20.86
2023-07-24T02:20:34.078Z,20.83
2023-07-24T02:23:01.633Z,20.82
2023-07-24T02:25:29.231Z,20.81
2023-07-24T02:27:56.830Z,20.80
2023-07-24T02:30:25.111Z,20.78
2023-07-24T02:32:52.683Z,20.76
2023-07-24T02:35:20.284Z,20.70
2023-07-24T02:37:47.789Z,20.65
2023-07-24T02:40:15.457Z,20.59
2023-07-24T02:42:42.968Z,20.54
2023-07-24T02:45:12.144Z,20.49
2023-07-24T02:47:39.864Z,20.49
2023-07-24T02:50:08.036Z,20.46
2023-07-24T02:52:35.689Z,20.45
2023-07-24T02:55:03.449Z,20.46
2023-07-24T02:57:31.015Z,20.46
2023-07-24T02:59:58.685Z,20.48
2023-07-24T03:02:26.300Z,20.51
2023-07-24T03:04:53.889Z,20.50
2023-07-24T03:07:21.459Z,20.50
2023-07-24T03:09:49.097Z,20.50
2023-07-24T03:12:17.097Z,20.47
2023-07-24T03:14:44.991Z,20.43
2023-07-24T03:17:12.800Z,20.42
2023-07-24T03:19:41.810Z,20.43
2023-07-24T03:22:09.613Z,20.42
2023-07-24T03:24:37.169Z,20.40
2023-07-24T03:27:05.035Z,20.41
2023-07-24T03:29:32.777Z,20.44
2023-07-24T03:32:00.853Z,20.42
2023-07-24T03:34:28.619Z,20.48
2023-07-24T03:36:56.208Z,20.52
2023-07-24T03:39:23.780Z,20.55
2023-07-24T03:41:51.317Z,20.59
2023-07-24T03:44:18.864Z,20.64
2023-07-24T03:46:47.097Z,20.65
2023-07-24T03:49:14.758Z,20.67
2023-07-24T03:51:42.412Z,20.64
2023-07-24T03:54:10.022Z,20.61
2023-07-24T03:56:37.572Z,20.65
2023-07-24T03:59:06.657Z,20.62
2023-07-24T04:01:34.278Z,20.57
2023-07-24T04:04:02.461Z,20.54
2023-07-24T04:06:30.376Z,20.61
2023-07-24T04:08:59.047Z,20.68
2023-07-24T04:11:26.608Z,20.76
2023-07-24T04:13:54.161Z,20.83
2023-07-24T04:16:21.844Z,20.90
2023-07-24T04:18:49.470Z,20.94
2023-07-24T04:21:17.051Z,20.96
2023-07-24T04:23:44.641Z,21.00
2023-07-24T04:26:12.193Z,21.01
2023-07-24T04:28:39.748Z,21.04
2023-07-24T04:31:07.342Z,21.07
2023-07-24T04:33:34.904Z,21.02
2023-07-24T04:36:02.541Z,21.00
2023-07-24T04:38:30.112Z,21.00
2023-07-24T04:40:57.709Z,21.03
2023-07-24T04:43:25.325Z,21.09
2023-07-24T04:45:52.923Z,21.11
2023-07-24T04:48:20.877Z,21.17
2023-07-24T04:50:54.502Z,21.23
2023-07-24T04:53:22.346Z,21.29
2023-07-24T04:55:50.184Z,21.35
2023-07-24T04:58:17.868Z,21.41
2023-07-24T05:00:45.480Z,21.47
2023-07-24T05:03:13.290Z,21.52
2023-07-24T05:05:44.467Z,21.55
2023-07-24T05:08:13.339Z,21.58
2023-07-24T05:10:40.968Z,21.58
2023-07-24T05:13:09.054Z,21.58
2023-07-24T05:15:37.719Z,21.55
2023-07-24T05:18:05.289Z,21.54
2023-07-24T05:20:32.866Z,21.53
2023-07-24T05:23:00.465Z,21.48
2023-07-24T05:25:28.044Z,21.45
2023-07-24T05:27:55.626Z,21.41
2023-07-24T05:30:23.218Z,21.39
2023-07-24T05:32:50.980Z,21.41
2023-07-24T05:35:18.604Z,21.46
2023-07-24T05:37:46.165Z,21.46
2023-07-24T05:40:13.881Z,21.41
2023-07-24T05:42:44.354Z,21.49
2023-07-24T05:45:12.359Z,21.55
2023-07-24T05:47:39.970Z,21.62
2023-07-24T05:50:08.031Z,21.65
2023-07-24T05:52:35.577Z,21.63
2023-07-24T05:55:04.156Z,21.67
2023-07-24T05:57:31.752Z,21.70
2023-07-24T05:59:59.282Z,21.71
2023-07-24T06:02:26.832Z,21.78
2023-07-24T06:04:54.465Z,21.76
2023-07-24T06:07:22.087Z,21.80
2023-07-24T06:09:49.804Z,21.83
2023-07-24T06:12:17.538Z,21.88
2023-07-24T06:14:45.147Z,21.90
2023-07-24T06:17:12.713Z,21.92
2023-07-24T06:19:40.302Z,21.97
2023-07-24T06:22:08.467Z,22.03
2023-07-24T06:24:36.157Z,22.03
2023-07-24T06:27:04.071Z,22.02
2023-07-24T06:29:31.806Z,22.08
2023-07-24T06:31:59.470Z,22.09
2023-07-24T06:34:27.048Z,22.12
2023-07-24T06:36:55.246Z,22.21
2023-07-24T06:39:24.776Z,22.27
2023-07-24T06:41:56.217Z,22.32
2023-07-24T06:44:23.847Z,22.31
2023-07-24T06:46:51.429Z,22.38
2023-07-24T06:49:18.991Z,22.44
2023-07-24T06:51:46.582Z,22.51
2023-07-24T06:54:14.134Z,22.55
2023-07-24T06:56:41.676Z,22.62
2023-07-24T06:59:09.221Z,22.71
2023-07-24T07:01:36.892Z,22.78
2023-07-24T07:04:04.668Z,22.83
2023-07-24T07:06:32.264Z,22.87
2023-07-24T07:08:59.838Z,22.86
2023-07-24T07:11:27.384Z,22.90
2023-07-24T07:13:54.953Z,22.92
2023-07-24T07:16:22.588Z,22.95
2023-07-24T07:18:50.323Z,23.01
2023-07-24T07:21:17.966Z,23.04
2023-07-24T07:23:47.414Z,23.06
2023-07-24T07:26:15.190Z,23.07
2023-07-24T07:28:42.835Z,23.06
2023-07-24T07:31:10.448Z,23.08
2023-07-24T07:33:38.113Z,23.10
2023-07-24T07:36:06.984Z,23.12
2023-07-24T07:38:34.560Z,23.13
2023-07-24T07:41:06.671Z,23.12
2023-07-24T07:43:34.322Z,23.12
2023-07-24T07:46:01.946Z,23.13
2023-07-24T07:48:29.584Z,23.14
2023-07-24T07:50:57.158Z,23.15
2023-07-24T07:53:24.726Z,23.18
2023-07-24T07:56:01.013Z,23.18
2023-07-24T07:58:28.866Z,23.18
2023-07-24T08:00:56.662Z,23.18
2023-07-24T08:03:24.383Z,23.17
2023-07-24T08:05:52.048Z,23.14
2023-07-24T08:08:19.590Z,23.10
2023-07-24T08:10:47.182Z,23.02
2023-07-24T08:13:14.718Z,22.97
2023-07-24T08:15:42.253Z,22.92
2023-07-24T08:18:09.910Z,22.88
2023-07-24T08:20:38.527Z,22.87
2023-07-24T08:23:06.074Z,22.80
2023-07-24T08:25:33.645Z,22.75
2023-07-24T08:28:05.864Z,22.71
2023-07-24T08:30:35.650Z,22.64
2023-07-24T08:33:04.209Z,22.63
2023-07-24T08:35:31.899Z,22.63
2023-07-24T08:37:59.489Z,22.65
2023-07-24T08:40:27.096Z,22.65
2023-07-24T08:42:55.777Z,22.67
2023-07-24T08:45:25.602Z,22.69
2023-07-24T08:47:53.579Z,22.72
2023-07-24T08:50:22.761Z,22.72
2023-07-24T08:52:50.373Z,22.74
2023-07-24T08:55:18.022Z,22.75
2023-07-24T08:57:45.610Z,22.79
2023-07-24T09:00:13.842Z,22.86
2023-07-24T09:02:41.521Z,22.87
2023-07-24T09:05:09.965Z,22.91
2023-07-24T09:07:38.709Z,22.94
2023-07-24T09:10:08.342Z,22.99
2023-07-24T09:12:39.906Z,22.97
2023-07-24T09:15:08.803Z,23.08
2023-07-24T09:17:36.490Z,23.18
2023-07-24T09:20:05.005Z,23.24
2023-07-24T09:22:34.425Z,23.31
2023-07-24T09:25:04.463Z,23.39
2023-07-24T09:27:33.145Z,23.44
2023-07-24T09:30:02.079Z,23.52
2023-07-24T09:32:30.202Z,23.59
2023-07-24T09:34:57.804Z,23.65
2023-07-24T09:37:36.448Z,23.72
2023-07-24T09:40:07.555Z,23.81
2023-07-24T09:42:48.546Z,23.86
2023-07-24T09:45:23.413Z,23.92
2023-07-24T09:47:56.712Z,23.94
2023-07-24T09:50:26.859Z,23.93
2023-07-24T09:52:55.893Z,23.88
2023-07-24T09:55:31.248Z,23.91
2023-07-24T09:58:01.488Z,23.85
2023-07-24T10:00:29.934Z,23.81
2023-07-24T10:02:57.731Z,23.76
2023-07-24T10:05:25.734Z,23.68
2023-07-24T10:07:53.917Z,23.64
2023-07-24T10:10:22.518Z,23.63
2023-07-24T10:12:50.528Z,23.56
2023-07-24T10:15:19.137Z,23.51
2023-07-24T10:17:48.382Z,23.46
2023-07-24T10:20:18.922Z,23.47
2023-07-24T10:22:46.792Z,23.46
2023-07-24T10:25:14.439Z,23.39
2023-07-24T10:27:47.892Z,23.26
2023-07-24T10:30:32.606Z,23.22
2023-07-24T10:33:20.026Z,23.16
2023-07-24T10:36:10.775Z,23.11
2023-07-24T10:38:41.698Z,23.07
2023-07-24T10:41:11.493Z,23.06
2023-07-24T10:43:48.686Z,23.03
2023-07-24T10:46:20.302Z,22.99
2023-07-24T10:48:53.214Z,22.91
2023-07-24T10:51:22.578Z,22.85
2023-07-24T10:53:50.919Z,22.79
2023-07-24T10:56:18.605Z,22.71
2023-07-24T10:58:46.201Z,22.68
2023-07-24T11:01:15.240Z,22.60
2023-07-24T11:03:43.885Z,22.56
2023-07-24T11:06:20.900Z,22.58
2023-07-24T11:09:00.363Z,22.55
2023-07-24T11:11:37.133Z,22.52
2023-07-24T11:14:05.638Z,22.51
2023-07-24T11:16:34.438Z,22.49
2023-07-24T11:19:02.518Z,22.49
2023-07-24T11:21:30.670Z,22.44
2023-07-24T11:23:58.918Z,22.48
2023-07-24T11:26:28.146Z,22.48
2023-07-24T11:28:56.442Z,22.46
2023-07-24T11:31:24.127Z,22.48
2023-07-24T11:33:53.953Z,22.53
2023-07-24T11:36:22.772Z,22.53
2023-07-24T11:38:50.418Z,22.52
2023-07-24T11:41:18.983Z,22.56
2023-07-24T11:43:51.625Z,22.67
2023-07-24T11:46:32.855Z,22.77
2023-07-24T11:49:00.699Z,22.90
2023-07-24T11:51:30.101Z,23.02
2023-07-24T11:54:09.042Z,23.14
2023-07-24T11:56:36.938Z,23.16
2023-07-24T11:59:23.073Z,23.08
2023-07-24T12:01:50.625Z,23.02
2023-07-24T12:04:18.583Z,23.04
2023-07-24T12:06:46.279Z,22.81
2023-07-24T12:09:14.251Z,22.76
2023-07-24T12:11:46.674Z,22.63
2023-07-24T12:14:15.925Z,22.44
2023-07-24T12:16:43.885Z,22.44
2023-07-24T12:19:11.525Z,22.42
2023-07-24T12:21:39.368Z,22.33
2023-07-24T12:24:06.967Z,22.28
2023-07-24T12:26:34.731Z,22.28
2023-07-24T12:29:02.325Z,22.25
2023-07-24T12:31:30.653Z,22.21
2023-07-24T12:33:58.479Z,22.16
2023-07-24T12:36:26.065Z,22.10
2023-07-24T12:38:53.658Z,22.15
2023-07-24T12:41:21.190Z,22.12
2023-07-24T12:43:48.823Z,22.12
2023-07-24T12:46:16.487Z,22.12
2023-07-24T12:48:44.088Z,22.11
2023-07-24T12:51:11.658Z,22.08
2023-07-24T12:53:47.525Z,22.01
2023-07-24T12:56:21.130Z,22.00
2023-07-24T12:58:48.692Z,21.90
2023-07-24T13:01:16.342Z,21.86
2023-07-24T13:03:44.007Z,21.87
2023-07-24T13:06:11.620Z,21.86
2023-07-24T13:08:39.173Z,21.86
2023-07-24T13:11:06.827Z,21.78
2023-07-24T13:13:34.866Z,21.79
2023-07-24T13:16:02.825Z,21.76
2023-07-24T13:18:30.928Z,21.82
2023-07-24T13:20:58.598Z,21.87
2023-07-24T13:23:26.173Z,21.90
2023-07-24T13:25:54.461Z,21.94
2023-07-24T13:28:22.096Z,21.99
2023-07-24T13:30:49.758Z,21.99
2023-07-24T13:33:17.387Z,22.03
2023-07-24T13:35:45.410Z,22.09
2023-07-24T13:38:13.220Z,22.19
2023-07-24T13:40:41.076Z,22.28
2023-07-24T13:43:08.662Z,22.44
2023-07-24T13:45:36.318Z,22.56
2023-07-24T13:48:04.210Z,22.64
2023-07-24T13:50:31.821Z,22.86
2023-07-24T13:52:59.378Z,23.09
2023-07-24T13:55:27.013Z,23.45
2023-07-24T13:57:54.612Z,23.77
2023-07-24T14:00:22.320Z,24.12
2023-07-24T14:02:50.044Z,24.44
2023-07-24T14:05:17.883Z,24.81
2023-07-24T14:07:45.543Z,25.09
2023-07-24T14:10:13.205Z,25.21
2023-07-24T14:12:40.818Z,25.29
2023-07-24T14:15:09.111Z,25.27
2023-07-24T14:17:36.770Z,25.15
2023-07-24T14:20:06.287Z,25.10
2023-07-24T14:22:33.913Z,25.14
2023-07-24T14:25:01.553Z,25.12
2023-07-24T14:27:29.198Z,25.10
2023-07-24T14:29:56.850Z,25.14
2023-07-24T14:32:24.526Z,25.20
2023-07-24T14:34:53.730Z,25.22
2023-07-24T14:37:22.028Z,25.24
2023-07-24T14:39:51.138Z,25.35
2023-07-24T14:42:19.192Z,25.46
2023-07-24T14:44:46.839Z,25.59
2023-07-24T14:47:14.717Z,25.65
2023-07-24T14:49:42.325Z,25.65
2023-07-24T14:52:10.182Z,25.64
2023-07-24T14:54:39.732Z,25.64
2023-07-24T14:57:19.123Z,25.74
2023-07-24T14:59:52.250Z,25.88
2023-07-24T15:02:20.025Z,25.97
2023-07-24T15:04:47.956Z,26.05
2023-07-24T15:07:15.754Z,26.10
2023-07-24T15:09:44.409Z,26.10
2023-07-24T15:12:12.128Z,26.05
2023-07-24T15:14:39.803Z,26.10
2023-07-24T15:17:08.121Z,26.14
2023-07-24T15:19:35.760Z,26.19
2023-07-24T15:22:03.468Z,26.21
2023-07-24T15:24:31.080Z,26.24
2023-07-24T15:26:58.723Z,26.24
2023-07-24T15:29:26.376Z,26.20
2023-07-24T15:31:53.999Z,26.07
2023-07-24T15:34:21.590Z,25.95
2023-07-24T15:36:49.180Z,25.89
2023-07-24T15:39:16.741Z,25.82
2023-07-24T15:41:44.304Z,25.70
2023-07-24T15:44:11.982Z,25.54
2023-07-24T15:46:39.698Z,25.46
2023-07-24T15:49:07.364Z,25.40
2023-07-24T15:51:35.237Z,25.29
2023-07-24T15:54:05.753Z,25.23
2023-07-24T15:56:33.429Z,25.17
2023-07-24T15:59:01.144Z,25.06
2023-07-24T16:01:29.545Z,24.93
2023-07-24T16:03:57.547Z,24.87
2023-07-24T16:06:25.233Z,24.82
2023-07-24T16:08:52.867Z,24.81
2023-07-24T16:11:20.675Z,24.67
2023-07-24T16:13:48.292Z,24.44
2023-07-24T16:16:16.063Z,23.98
2023-07-24T16:18:44.172Z,23.49
2023-07-24T16:21:11.789Z,22.73
2023-07-24T16:23:39.520Z,22.32
2023-07-24T16:26:07.156Z,21.99
2023-07-24T16:28:34.724Z,21.70
2023-07-24T16:31:02.385Z,21.45
2023-07-24T16:33:31.296Z,21.25
2023-07-24T16:35:59.178Z,21.10
2023-07-24T16:38:26.740Z,20.93
2023-07-24T16:40:55.772Z,20.91
2023-07-24T16:43:23.962Z,20.81
2023-07-24T16:48:22.963Z,20.84
2023-07-24T16:50:50.697Z,20.92
2023-07-24T16:53:18.292Z,20.94
2023-07-24T16:55:45.857Z,20.99
2023-07-24T16:58:13.431Z,21.09
2023-07-24T17:00:41.072Z,21.08
2023-07-24T17:03:08.758Z,21.01
2023-07-24T17:05:36.869Z,21.14
2023-07-24T17:08:04.905Z,21.24
2023-07-24T17:10:44.888Z,21.27
2023-07-24T17:13:14.418Z,21.34
2023-07-24T17:15:44.084Z,21.50
2023-07-24T17:18:11.699Z,21.66
2023-07-24T17:20:39.307Z,21.82
2023-07-24T17:23:07.392Z,21.97
2023-07-24T17:25:36.946Z,21.97
2023-07-24T17:28:04.936Z,22.11
2023-07-24T17:30:32.743Z,22.03
2023-07-24T17:33:00.598Z,22.02
2023-07-24T17:35:28.611Z,22.07
2023-07-24T17:37:56.179Z,22.08
2023-07-24T17:40:23.944Z,22.07
2023-07-24T17:42:52.520Z,22.07
2023-07-24T17:45:20.076Z,22.07
2023-07-24T17:47:47.662Z,21.99
2023-07-24T17:50:15.341Z,21.94
2023-07-24T17:52:42.915Z,22.01
2023-07-24T17:55:10.549Z,21.95
2023-07-24T17:57:38.186Z,21.88
2023-07-24T18:00:06.772Z,21.88
2023-07-24T18:03:11.533Z,21.78
2023-07-24T18:05:39.429Z,21.80
2023-07-24T18:08:07.076Z,21.73
2023-07-24T18:10:34.721Z,21.75
2023-07-24T18:13:03.102Z,21.67
2023-07-24T18:15:30.687Z,21.70
2023-07-24T18:17:58.338Z,21.70
2023-07-24T18:20:25.931Z,21.63
2023-07-24T18:22:53.947Z,21.62
2023-07-24T18:25:21.614Z,21.61
2023-07-24T18:27:49.166Z,21.59
2023-07-24T18:30:16.997Z,21.55
2023-07-24T18:32:44.556Z,21.53
2023-07-24T18:35:13.957Z,21.52
2023-07-24T18:37:41.516Z,21.45
2023-07-24T18:40:09.808Z,21.40
2023-07-24T18:42:37.357Z,21.31
2023-07-24T18:45:05.885Z,21.29
2023-07-24T18:47:35.161Z,21.27
2023-07-24T18:50:03.440Z,21.24
2023-07-24T18:52:30.980Z,21.23
2023-07-24T18:55:00.341Z,21.20
2023-07-24T18:57:27.987Z,21.16
2023-07-24T18:59:55.606Z,21.04
2023-07-24T19:02:23.319Z,20.98
2023-07-24T19:04:51.159Z,20.97
2023-07-24T19:07:18.831Z,20.94
2023-07-24T19:09:46.379Z,20.84
2023-07-24T19:12:14.072Z,20.83
2023-07-24T19:14:41.742Z,20.85
2023-07-24T19:17:09.576Z,20.78
2023-07-24T19:19:38.964Z,20.78
2023-07-24T19:22:06.934Z,20.81
2023-07-24T19:24:34.584Z,20.79
2023-07-24T19:27:02.401Z,20.79
2023-07-24T19:29:29.976Z,20.74
2023-07-24T19:31:57.621Z,20.73
2023-07-24T19:34:25.203Z,20.72
2023-07-24T19:36:52.938Z,20.69
2023-07-24T19:39:20.546Z,20.62
2023-07-24T19:41:48.105Z,20.58
2023-07-24T19:44:15.686Z,20.56
2023-07-24T19:46:43.287Z,20.55
2023-07-24T19:49:10.877Z,20.54
2023-07-24T19:51:38.444Z,20.46
2023-07-24T19:54:06.083Z,20.42
2023-07-24T19:56:33.735Z,20.43
2023-07-24T19:59:01.275Z,20.42
2023-07-24T20:01:29.156Z,20.33
2023-07-24T20:03:57.004Z,20.37
2023-07-24T20:06:26.277Z,20.39
2023-07-24T20:08:53.849Z,20.42
2023-07-24T20:11:21.824Z,20.38
2023-07-24T20:13:49.540Z,20.38
2023-07-24T20:16:20.146Z,20.37
2023-07-24T20:18:48.008Z,20.33
2023-07-24T20:21:16.414Z,20.33
2023-07-24T20:23:44.119Z,20.30
2023-07-24T20:26:11.768Z,20.26
2023-07-24T20:28:39.700Z,20.23
2023-07-24T20:31:07.359Z,20.22
2023-07-24T20:33:34.980Z,20.20
2023-07-24T20:36:07.898Z,20.16
2023-07-24T20:38:37.677Z,20.18
2023-07-24T20:41:05.605Z,20.17
2023-07-24T20:43:33.225Z,20.18
2023-07-24T20:46:12.861Z,20.16
2023-07-24T20:48:41.615Z,20.14
2023-07-24T20:51:20.016Z,20.17
2023-07-24T20:53:48.923Z,20.13
2023-07-24T20:56:16.580Z,20.04
2023-07-24T20:58:45.126Z,20.01
2023-07-24T21:01:12.714Z,19.99
2023-07-24T21:03:40.405Z,19.97
2023-07-24T21:06:07.970Z,19.93
2023-07-24T21:08:35.536Z,19.91
2023-07-24T21:11:03.185Z,19.88
2023-07-24T21:13:30.760Z,19.82
2023-07-24T21:15:59.136Z,19.78
2023-07-24T21:18:27.433Z,19.76
2023-07-24T21:20:55.084Z,19.78
2023-07-24T21:23:22.683Z,19.75
2023-07-24T21:25:55.364Z,19.71
2023-07-24T21:28:24.361Z,19.65
2023-07-24T21:30:52.447Z,19.55
2023-07-24T21:33:20.262Z,19.52
2023-07-24T21:36:00.525Z,19.54
2023-07-24T21:38:28.207Z,19.55
2023-07-24T21:40:55.871Z,19.48
2023-07-24T21:43:24.595Z,19.47
2023-07-24T21:45:54.825Z,19.46
2023-07-24T21:48:22.563Z,19.46
2023-07-24T21:50:54.152Z,19.50
2023-07-24T21:53:22.660Z,19.49
2023-07-24T21:55:50.458Z,19.46
2023-07-24T21:58:18.152Z,19.38
2023-07-24T22:00:45.925Z,19.34
2023-07-24T22:03:13.687Z,19.32
2023-07-24T22:05:41.407Z,19.30
2023-07-24T22:08:09.506Z,19.27
2023-07-24T22:10:37.096Z,19.24
2023-07-24T22:13:04.694Z,19.20
2023-07-24T22:15:32.472Z,19.15
2023-07-24T22:18:00.071Z,19.14
2023-07-24T22:20:39.131Z,19.14
2023-07-24T22:23:09.635Z,19.14
2023-07-24T22:25:37.249Z,19.18
2023-07-24T22:28:05.083Z,19.12
2023-07-24T22:30:32.651Z,19.08
2023-07-24T22:33:00.326Z,19.11
2023-07-24T22:35:28.144Z,19.10
2023-07-24T22:37:55.682Z,19.06
2023-07-24T22:40:23.229Z,19.10
2023-07-24T22:42:50.790Z,19.13
2023-07-24T22:45:18.431Z,19.15
2023-07-24T22:47:46.650Z,19.13
2023-07-24T22:50:15.327Z,19.16
2023-07-24T22:52:43.905Z,19.19
2023-07-24T22:55:11.653Z,19.22
2023-07-24T22:57:39.221Z,19.25
2023-07-24T23:00:07.527Z,19.22
2023-07-24T23:02:35.427Z,19.18
2023-07-24T23:05:03.030Z,19.17
2023-07-24T23:07:30.572Z,19.14
2023-07-24T23:09:58.189Z,19.19
2023-07-24T23:12:25.795Z,19.22
2023-07-24T23:14:53.465Z,19.21
2023-07-24T23:17:21.116Z,19.19
2023-07-24T23:19:48.749Z,19.20
2023-07-24T23:22:16.314Z,19.14
2023-07-24T23:24:43.881Z,19.14
2023-07-24T23:27:11.533Z,19.20
2023-07-24T23:29:39.131Z,19.17
2023-07-24T23:32:07.489Z,19.06
2023-07-24T23:34:35.512Z,19.13
2023-07-24T23:37:03.102Z,19.13
2023-07-24T23:39:30.708Z,19.16
2023-07-24T23:41:58.270Z,19.16
2023-07-24T23:44:25.846Z,19.15
2023-07-24T23:46:53.410Z,19.15
2023-07-24T23:49:21.004Z,19.13
2023-07-24T23:51:48.566Z,19.13
2023-07-24T23:54:16.312Z,19.13
2023-07-24T23:56:43.859Z,19.14
2023-07-24T23:59:11.430Z,19.16
